Latest Coastal Weather Observations for Rhyll

IDV60701

Issued at 7:41 pm EST Tuesday 28 June 2016 (issued every 10 minutes, with the page automatically refreshed every 10 minutes)

About coastal observations | Map of coastal stations | Coastal observations for VIC | Marine services | Other Formats
Station Details ID: 086373 Name: RHYLL Lat: -38.46 Lon: 145.31 Height: 13.4 m
Data from the previous 72 hours. | See also: Recent months at Rhyll
Date/Time
EST
Temp
°C
Wind Pressure Rain since
9am
mm
Weather Cloud Vis
km
Sea
Height
m
Swell
Dir  Spd
kts
Gust
kts
hPa Trend Height
m
Period
s
Dir
28/07:30pm 12.3 NNW 8 11 1024.6 - 0.0 - - - - - - -
28/07:00pm 12.2 NNW 9 11 1024.3 - 0.0 - - - - - - -
28/06:30pm 12.1 NNW 4 6 1024.2 - 0.0 - - - - - - -
28/06:00pm 12.5 NNW 3 5 1024.0 - 0.0 - - - - - - -
28/05:30pm 12.5 NW 2 4 1023.6 - 0.0 - - - - - - -
28/05:00pm 12.8 NW 2 3 1023.4 - 0.0 - - - - - - -
28/04:30pm 13.6 NW 4 8 1023.1 - 0.0 - - - - - - -
28/04:00pm 14.1 NW 4 8 1023.0 - 0.0 - - - - - - -
28/03:30pm 14.6 NW 5 9 1022.8 - 0.0 - - - - - - -
28/03:00pm 14.7 WNW 4 10 1022.8 - 0.0 - - - - - - -
28/02:30pm 14.9 WNW 4 10 1022.5 - 0.0 - - - - - - -
28/02:00pm 15.1 WNW 5 10 1022.3 - 0.0 - - - - - - -
28/01:30pm 14.9 NW 6 10 1022.5 - 0.0 - - - - - - -
28/01:00pm 14.8 NW 6 11 1022.6 - 0.0 - - - - - - -
28/12:30pm 13.5 NW 6 12 1022.7 - 0.0 - - - - - - -
28/12:00pm 13.9 NW 6 13 1023.0 - 0.0 - - - - - - -
28/11:30am 13.4 NNW 6 9 1023.2 - 0.0 - - - - - - -
28/11:00am 12.6 NW 6 11 1023.2 - 0.0 - - - - - - -
28/10:30am 12.5 NW 8 12 1023.2 - 0.0 - - - - - - -
28/10:00am 12.3 NW 4 9 1023.0 - 0.0 - - - - - - -
28/09:30am 11.2 NW 7 11 1022.8 - 0.0 - - - - - - -
28/09:00am 10.4 NNW 10 15 1022.5 - 0.2 - - - - - - -
28/08:30am 10.1 NW 10 16 1022.2 - 0.2 - - - - - - -
28/08:00am 10.0 NNW 9 14 1022.2 - 0.2 - - - - - - -
28/07:30am 10.1 NNW 10 14 1021.9 - 0.2 - - - - - - -
28/07:00am 10.0 NNW 10 13 1021.7 - 0.2 - - - - - - -
28/06:30am 9.6 NNW 10 15 1021.4 - 0.2 - - - - - - -
28/06:00am 9.4 NNW 11 15 1021.2 - 0.2 - - - - - - -
28/05:30am 9.5 NNW 9 15 1020.8 - 0.2 - - - - - - -
28/05:00am 9.2 NNW 11 16 1020.6 - 0.2 - - - - - - -
28/04:30am 8.8 NNW 9 13 1020.5 - 0.2 - - - - - - -
28/04:00am 9.1 NNW 10 14 1020.6 - 0.2 - - - - - - -
28/03:30am 9.1 NNW 9 14 1020.6 - 0.2 - - - - - - -
28/03:00am 8.8 NNW 11 14 1020.6 - 0.2 - - - - - - -
28/02:30am 9.0 NNW 6 11 1020.6 - 0.2 - - - - - - -
28/02:00am 9.1 NNW 6 10 1020.5 - 0.2 - - - - - - -
28/01:30am 8.8 NNW 5 8 1020.4 - 0.2 - - - - - - -
28/01:00am 9.0 NNW 7 11 1020.4 - 0.2 - - - - - - -
28/12:30am 8.9 NNW 8 11 1020.4 - 0.2 - - - - - - -
28/12:00am 8.8 NNW 7 11 1020.5 - 0.2 - - - - - - -
 
Date/Time
EST
Temp
°C
Wind Pressure Rain since
9am
mm
Weather Cloud Vis
km
Sea
Height
m
Swell
Dir  Spd
kts
Gust
kts
hPa Trend Height
m
Period
s
Dir
27/11:30pm 9.1 NNW 7 11 1020.4 - 0.2 - - - - - - -
27/11:00pm 9.1 NNW 8 11 1020.3 - 0.2 - - - - - - -
27/10:30pm 9.4 NNW 9 13 1020.3 - 0.2 - - - - - - -
27/10:00pm 9.6 NNW 11 16 1020.0 - 0.2 - - - - - - -
27/09:30pm 9.6 NNW 10 14 1019.8 - 0.2 - - - - - - -
27/09:00pm 9.6 NNW 11 14 1019.7 - 0.2 - - - - - - -
27/08:30pm 9.7 NNW 9 14 1019.6 - 0.2 - - - - - - -
27/08:00pm 9.7 N 9 12 1019.5 - 0.2 - - - - - - -
27/07:30pm 10.1 NNW 6 9 1019.3 - 0.2 - - - - - - -
27/07:00pm 10.2 NW 4 7 1018.9 - 0.2 - - - - - - -
27/06:30pm 10.3 NW 3 5 1018.6 - 0.2 - - - - - - -
27/06:00pm 10.4 NW 3 6 1018.4 - 0.2 - - - - - - -
27/05:30pm 10.1 NW 3 8 1018.2 - 0.2 - - - - - - -
27/05:00pm 10.4 NW 4 8 1017.8 - 0.2 - - - - - - -
27/04:30pm 10.8 WNW 3 6 1017.6 - 0.2 - - - - - - -
27/04:00pm 11.1 NW 4 8 1017.3 - 0.2 - - - - - - -
27/03:30pm 11.3 NW 4 9 1017.1 - 0.2 - - - - - - -
27/03:00pm 12.0 NW 5 9 1016.9 - 0.2 - - - - - - -
27/02:30pm 11.1 NW 5 11 1016.6 - 0.2 - - - - - - -
27/02:00pm 11.0 WNW 5 11 1016.5 - 0.2 - - - - - - -
27/01:30pm 10.6 WNW 5 10 1016.6 - 0.2 - - - - - - -
27/01:00pm 10.6 WNW 7 12 1016.6 - 0.2 - - - - - - -
27/12:30pm 10.3 WNW 5 10 1016.6 - 0.2 - - - - - - -
27/12:00pm 10.2 NW 6 11 1016.9 - 0.2 - - - - - - -
27/11:30am 10.2 NW 6 12 1017.1 - 0.2 - - - - - - -
27/11:00am 10.2 NW 6 11 1017.0 - 0.2 - - - - - - -
27/10:30am 9.5 NNW 10 14 1017.2 - 0.2 - - - - - - -
27/10:00am 9.0 NNW 13 17 1017.1 - 0.2 - - - - - - -
27/09:30am 8.6 NNW 12 18 1017.0 - 0.2 - - - - - - -
27/09:00am 8.6 NNW 12 17 1016.7 - 0.0 - - - - - - -
27/08:30am 8.4 NNW 12 18 1016.6 - 0.0 - - - - - - -
27/08:00am 8.2 NNW 10 15 1016.4 - 0.0 - - - - - - -
27/07:30am 8.4 NNW 12 16 1016.1 - 0.0 - - - - - - -
27/07:00am 8.4 NNW 12 17 1015.9 - 0.0 - - - - - - -
27/06:30am 8.2 NNW 13 17 1015.7 - 0.0 - - - - - - -
27/06:00am 7.9 NNW 14 17 1015.5 - 0.0 - - - - - - -
27/05:30am 7.9 NNW 13 17 1015.2 - 0.0 - - - - - - -
27/05:00am 8.0 NNW 10 14 1015.2 - 0.0 - - - - - - -
27/04:30am 8.0 NNW 13 17 1015.2 - 0.0 - - - - - - -
27/04:00am 7.7 NNW 12 17 1015.3 - 0.0 - - - - - - -
27/03:30am 7.6 NNW 14 18 1015.3 - 0.0 - - - - - - -
27/03:00am 7.5 NNW 15 21 1015.3 - 0.0 - - - - - - -
27/02:30am 7.7 NNW 16 22 1015.4 - 0.0 - - - - - - -
27/02:00am 7.7 NNW 14 19 1015.6 - 0.0 - - - - - - -
27/01:30am 7.7 NNW 13 18 1015.7 - 0.0 - - - - - - -
27/01:00am 7.5 NNW 15 18 1015.6 - 0.0 - - - - - - -
27/12:30am 7.5 NNW 14 19 1015.7 - 0.0 - - - - - - -
27/12:00am 7.4 NNW 14 17 1015.8 - 0.0 - - - - - - -
 
Date/Time
EST
Temp
°C
Wind Pressure Rain since
9am
mm
Weather Cloud Vis
km
Sea
Height
m
Swell
Dir  Spd
kts
Gust
kts
hPa Trend Height
m
Period
s
Dir
26/11:30pm 7.2 N 13 16 1016.0 - 0.0 - - - - - - -
26/11:00pm 7.4 N 15 18 1015.8 - 0.0 - - - - - - -
26/10:30pm 7.6 N 15 20 1015.7 - 0.0 - - - - - - -
26/10:00pm 7.6 N 14 18 1015.9 - 0.0 - - - - - - -
26/09:30pm 7.9 N 12 16 1016.0 - 0.0 - - - - - - -
26/09:00pm 8.2 NNW 16 20 1016.3 - 0.0 - - - - - - -
26/08:30pm 8.6 NNW 16 20 1016.5 - 0.0 - - - - - - -
26/08:00pm 8.8 NNW 17 21 1016.4 - 0.0 - - - - - - -
26/07:30pm 8.6 N 14 19 1016.5 - 0.0 - - - - - - -
26/07:00pm 8.8 N 10 17 1016.5 - 0.0 - - - - - - -
26/06:30pm 9.2 N 13 16 1016.5 - 0.0 - - - - - - -
26/06:00pm 9.3 N 13 16 1016.6 - 0.0 - - - - - - -
26/05:30pm 9.6 N 14 17 1016.4 - 0.0 - - - - - - -
26/05:00pm 9.6 NNW 16 19 1016.4 - 0.0 - - - - - - -
26/04:30pm 9.7 N 15 19 1016.6 - 0.0 - - - - - - -
26/04:00pm 10.0 NNW 16 22 1016.6 - 0.0 - - - - - - -
26/03:30pm 10.0 NNW 14 18 1016.8 - 0.0 - - - - - - -
26/03:00pm 10.1 NNW 13 19 1016.8 - 0.0 - - - - - - -
26/02:30pm 10.3 NNW 15 20 1016.8 - 0.0 - - - - - - -
26/02:00pm 10.6 NNW 14 21 1017.0 - 0.0 - - - - - - -
26/01:30pm 10.8 NNW 15 23 1017.2 - 0.0 - - - - - - -
26/01:00pm 10.7 NNW 13 19 1017.4 - 0.0 - - - - - - -
26/12:30pm 10.6 NNW 13 17 1017.7 - 0.0 - - - - - - -
26/12:00pm 10.4 NNW 12 16 1018.3 - 0.0 - - - - - - -
26/11:30am 10.1 NNW 12 16 1018.9 - 0.0 - - - - - - -
26/11:00am 9.5 N 11 14 1019.5 - 0.0 - - - - - - -
26/10:30am 8.9 N 12 15 1019.8 - 0.0 - - - - - - -
26/10:00am 8.4 N 13 16 1020.1 - 0.0 - - - - - - -
26/09:30am 8.1 N 11 14 1020.3 - 0.0 - - - - - - -
26/09:00am 7.4 NNW 9 12 1020.5 - 0.0 - - - - - - -
26/08:30am 7.1 NNW 6 10 1020.6 - 0.0 - - - - - - -
26/08:00am 6.8 NNW 7 10 1020.4 - 0.0 - - - - - - -
26/07:30am 7.2 NNW 8 11 1020.3 - 0.0 - - - - - - -
26/07:00am 7.3 NNW 8 11 1020.3 - 0.0 - - - - - - -
26/06:30am 7.1 N 8 11 1020.3 - 0.0 - - - - - - -
26/06:00am 7.0 N 9 11 1020.4 - 0.0 - - - - - - -
26/05:30am 7.3 N 8 10 1020.2 - 0.0 - - - - - - -
26/05:00am 7.2 N 6 9 1020.1 - 0.0 - - - - - - -
26/04:30am 7.3 N 7 9 1020.1 - 0.0 - - - - - - -
26/04:00am 7.5 N 8 10 1020.3 - 0.0 - - - - - - -
26/03:30am 7.5 N 10 12 1020.5 - 0.0 - - - - - - -
26/03:00am 7.6 N 10 13 1020.9 - 0.0 - - - - - - -
26/02:30am 7.8 N 10 12 1020.8 - 0.0 - - - - - - -
26/02:00am 8.5 NNW 6 9 1020.6 - 0.0 - - - - - - -
26/01:30am 8.8 NNW 7 11 1020.6 - 0.0 - - - - - - -
26/01:00am 9.1 NNW 7 10 1020.9 - 0.0 - - - - - - -
26/12:30am 9.4 NNW 6 9 1021.0 - 0.0 - - - - - - -
26/12:00am 9.7 NNW 5 8 1021.1 - 0.0 - - - - - - -
 
Date/Time
EST
Temp
°C
Wind Pressure Rain since
9am
mm
Weather Cloud Vis
km
Sea
Height
m
Swell
Dir  Spd
kts
Gust
kts
hPa Trend Height
m
Period
s
Dir
25/11:30pm 9.6 NW 4 7 1021.3 - 0.0 - - - - - - -
25/11:00pm 9.6 NNW 5 7 1021.6 - 0.0 - - - - - - -
25/10:30pm 9.5 NNW 4 7 1021.6 - 0.0 - - - - - - -
25/10:00pm 9.3 NNW 5 8 1021.7 - 0.0 - - - - - - -
25/09:30pm 9.5 NNW 5 7 1021.8 - 0.0 - - - - - - -
25/09:00pm 9.8 NNW 5 9 1021.8 - 0.0 - - - - - - -
25/08:30pm 9.2 WNW 2 5 1021.8 - 0.0 - - - - - - -
25/08:00pm 9.1 NW 2 5 1022.1 - 0.0 - - - - - - -

Other Formats:

Comma delimited format used in spreadsheet applications
http://www.bom.gov.au/fwo/IDV60701/IDV60701.94892.axf

JavaScript Object Notation format (JSON) in row-major order
http://www.bom.gov.au/fwo/IDV60701/IDV60701.94892.json